sensor_id;sensor_type;location;lat;lon;timestamp;P1;durP1;ratioP1;P2;durP2;ratioP2
49320;SDS011;35817;44.498;0.166;2022-08-11T11:45:22;7.75;;;4.15;;
49320;SDS011;35817;44.498;0.166;2022-08-11T11:47:52;6.97;;;3.83;;
49320;SDS011;35817;44.498;0.166;2022-08-11T11:51:01;3.40;;;3.10;;
49320;SDS011;35817;44.498;0.166;2022-08-11T11:53:44;3.92;;;3.60;;
49320;SDS011;35817;44.498;0.166;2022-08-11T11:57:16;3.58;;;3.13;;
49320;SDS011;35817;44.498;0.166;2022-08-11T12:00:23;4.60;;;3.67;;
49320;SDS011;35817;44.498;0.166;2022-08-11T12:03:09;3.38;;;3.05;;
49320;SDS011;35817;44.498;0.166;2022-08-11T12:05:35;4.25;;;3.85;;
49320;SDS011;35817;44.498;0.166;2022-08-11T12:08:03;7.50;;;4.05;;
49320;SDS011;35817;44.498;0.166;2022-08-11T12:10:44;3.92;;;3.53;;
49320;SDS011;35817;44.498;0.166;2022-08-11T13:22:49;2.25;;;1.15;;
49320;SDS011;35817;44.498;0.166;2022-08-11T13:25:17;2.95;;;1.48;;
49320;SDS011;35817;44.498;0.166;2022-08-11T13:27:47;2.28;;;1.25;;
49320;SDS011;35817;44.498;0.166;2022-08-11T13:30:17;2.45;;;0.93;;
49320;SDS011;35817;44.498;0.166;2022-08-11T13:33:03;2.08;;;0.63;;
49320;SDS011;35817;44.498;0.166;2022-08-11T13:35:31;6.28;;;0.93;;
49320;SDS011;35817;44.498;0.166;2022-08-11T13:44:06;2.15;;;0.88;;
49320;SDS011;35817;44.498;0.166;2022-08-11T13:46:46;3.13;;;1.20;;
49320;SDS011;35817;44.498;0.166;2022-08-11T13:49:15;4.25;;;1.20;;
49320;SDS011;35817;44.498;0.166;2022-08-11T13:51:44;3.92;;;0.85;;
49320;SDS011;35817;44.498;0.166;2022-08-11T13:54:25;3.67;;;0.85;;
49320;SDS011;35817;44.498;0.166;2022-08-11T13:57:04;1.50;;;0.70;;
49320;SDS011;35817;44.498;0.166;2022-08-11T13:59:44;3.35;;;1.02;;
49320;SDS011;35817;44.498;0.166;2022-08-11T14:02:47;4.30;;;1.00;;
49320;SDS011;35817;44.498;0.166;2022-08-11T14:08:02;2.05;;;0.70;;
49320;SDS011;35817;44.498;0.166;2022-08-11T14:13:45;2.75;;;0.93;;
49320;SDS011;35817;44.498;0.166;2022-08-11T14:19:17;4.30;;;1.05;;
49320;SDS011;35817;44.498;0.166;2022-08-11T14:25:59;2.05;;;1.30;;
49320;SDS011;35817;44.498;0.166;2022-08-11T15:49:53;6.53;;;2.25;;
49320;SDS011;35817;44.498;0.166;2022-08-11T15:52:22;4.65;;;1.98;;
49320;SDS011;35817;44.498;0.166;2022-08-11T15:54:59;4.45;;;2.25;;
49320;SDS011;35817;44.498;0.166;2022-08-11T15:57:32;3.45;;;2.38;;
49320;SDS011;35817;44.498;0.166;2022-08-11T16:00:54;7.75;;;3.85;;
49320;SDS011;35817;44.498;0.166;2022-08-11T16:04:01;3.15;;;1.85;;
49320;SDS011;35817;44.498;0.166;2022-08-11T16:13:54;2.92;;;2.30;;
49320;SDS011;35817;44.498;0.166;2022-08-11T16:17:18;6.13;;;3.08;;
49320;SDS011;35817;44.498;0.166;2022-08-11T16:19:47;3.47;;;1.88;;
49320;SDS011;35817;44.498;0.166;2022-08-11T16:22:23;3.70;;;2.25;;
49320;SDS011;35817;44.498;0.166;2022-08-11T16:24:59;3.72;;;2.00;;
49320;SDS011;35817;44.498;0.166;2022-08-11T16:27:27;2.83;;;2.60;;
49320;SDS011;35817;44.498;0.166;2022-08-11T16:29:58;4.95;;;2.88;;
49320;SDS011;35817;44.498;0.166;2022-08-11T16:35:52;6.13;;;2.50;;
49320;SDS011;35817;44.498;0.166;2022-08-11T16:38:38;3.35;;;2.03;;
49320;SDS011;35817;44.498;0.166;2022-08-11T16:41:09;3.65;;;1.70;;
49320;SDS011;35817;44.498;0.166;2022-08-11T16:43:44;2.80;;;1.77;;
49320;SDS011;35817;44.498;0.166;2022-08-11T16:57:50;2.40;;;2.13;;
49320;SDS011;35817;44.498;0.166;2022-08-11T17:01:20;5.05;;;1.98;;
49320;SDS011;35817;44.498;0.166;2022-08-11T17:03:58;3.63;;;2.10;;
49320;SDS011;35817;44.498;0.166;2022-08-11T19:42:31;11.98;;;5.95;;
49320;SDS011;35817;44.498;0.166;2022-08-11T19:45:19;8.60;;;5.50;;
49320;SDS011;35817;44.498;0.166;2022-08-11T19:48:04;8.43;;;4.90;;
49320;SDS011;35817;44.498;0.166;2022-08-11T19:50:49;7.07;;;5.18;;
49320;SDS011;35817;44.498;0.166;2022-08-11T19:53:35;7.57;;;5.03;;
49320;SDS011;35817;44.498;0.166;2022-08-11T19:56:20;7.30;;;5.43;;
49320;SDS011;35817;44.498;0.166;2022-08-11T19:59:05;8.90;;;4.80;;
49320;SDS011;35817;44.498;0.166;2022-08-11T20:01:50;6.28;;;4.20;;
49320;SDS011;35817;44.498;0.166;2022-08-11T20:04:34;7.20;;;3.75;;
49320;SDS011;35817;44.498;0.166;2022-08-11T20:07:19;6.03;;;4.32;;
49320;SDS011;35817;44.498;0.166;2022-08-11T20:10:07;7.85;;;4.90;;
